createdAt,value
2017-05-30T00:00:35.418Z,0
2017-05-30T00:01:15.859Z,0
2017-05-30T00:01:56.301Z,0
2017-05-30T00:02:36.762Z,0
2017-05-30T00:03:17.191Z,0
2017-05-30T00:05:35.480Z,0
2017-05-30T00:06:15.924Z,0
2017-05-30T00:06:56.366Z,0
2017-05-30T00:07:36.820Z,0
2017-05-30T00:08:17.204Z,0
2017-05-30T00:08:57.613Z,0
2017-05-30T00:09:38.060Z,0
2017-05-30T00:10:18.526Z,0
2017-05-30T00:10:58.930Z,0
2017-05-30T00:11:39.359Z,0
2017-05-30T00:12:19.791Z,0
2017-05-30T00:13:00.241Z,0
2017-05-30T00:15:38.460Z,0
2017-05-30T00:16:18.909Z,0
2017-05-30T00:16:59.335Z,0
2017-05-30T00:17:39.789Z,0
2017-05-30T00:18:20.197Z,0
2017-05-30T00:19:00.652Z,0
2017-05-30T00:19:41.045Z,0
2017-05-30T00:20:21.448Z,0
2017-05-30T00:21:01.881Z,0
2017-05-30T00:21:42.291Z,0
2017-05-30T00:22:22.724Z,0
2017-05-30T00:23:03.173Z,0
2017-05-30T00:23:43.571Z,0
2017-05-30T00:24:24.040Z,0
2017-05-30T00:25:04.439Z,0
2017-05-30T00:25:44.878Z,0
2017-05-30T00:26:25.355Z,0
2017-05-30T00:27:05.759Z,0
2017-05-30T00:27:46.187Z,0
2017-05-30T00:28:26.605Z,0
2017-05-30T00:29:07.043Z,0
2017-05-30T00:29:47.479Z,0
2017-05-30T00:30:27.896Z,0
2017-05-30T00:31:08.307Z,0
2017-05-30T00:31:48.719Z,0
2017-05-30T00:32:29.153Z,0
2017-05-30T00:33:09.576Z,0
2017-05-30T00:33:50.037Z,0
2017-05-30T00:34:30.445Z,0
2017-05-30T00:35:10.875Z,0
2017-05-30T00:35:51.351Z,0
2017-05-30T00:36:31.751Z,0
2017-05-30T00:37:12.210Z,0
2017-05-30T00:37:52.594Z,0
2017-05-30T00:38:32.989Z,0
2017-05-30T00:39:13.404Z,0
2017-05-30T00:39:53.832Z,0
2017-05-30T00:40:34.234Z,0
2017-05-30T00:41:14.658Z,0
2017-05-30T00:41:55.075Z,0
2017-05-30T00:42:35.467Z,0
2017-05-30T00:43:15.921Z,0
2017-05-30T00:43:56.366Z,0
2017-05-30T00:44:36.817Z,0
2017-05-30T00:45:17.256Z,0
2017-05-30T00:45:57.655Z,0
2017-05-30T00:46:38.127Z,0
2017-05-30T00:49:06.309Z,0
2017-05-30T00:49:46.776Z,0
2017-05-30T00:50:27.169Z,0
2017-05-30T00:51:07.584Z,0
2017-05-30T00:51:48.052Z,0
2017-05-30T00:52:28.405Z,0
2017-05-30T00:53:08.824Z,0
2017-05-30T00:53:49.207Z,0
2017-05-30T00:54:29.619Z,0
2017-05-30T00:55:10.051Z,0
2017-05-30T00:55:50.501Z,0
2017-05-30T00:56:30.931Z,0
2017-05-30T00:57:11.376Z,0
2017-05-30T00:57:51.753Z,0
2017-05-30T00:58:32.207Z,0
2017-05-30T00:59:12.646Z,0
2017-05-30T00:59:53.053Z,0
2017-05-30T01:00:33.468Z,0
2017-05-30T01:02:46.264Z,0
2017-05-30T01:03:26.689Z,0
2017-05-30T01:04:07.149Z,0
2017-05-30T01:04:47.555Z,0
2017-05-30T01:05:27.985Z,0
2017-05-30T01:06:08.389Z,0
2017-05-30T01:06:48.790Z,0
2017-05-30T01:07:29.218Z,0
2017-05-30T01:08:09.626Z,0
2017-05-30T01:08:50.051Z,0
2017-05-30T01:09:30.464Z,0
2017-05-30T01:12:03.523Z,0
2017-05-30T01:12:43.916Z,0
2017-05-30T01:13:24.328Z,0
2017-05-30T01:14:04.757Z,0
2017-05-30T01:14:45.153Z,0
2017-05-30T01:15:25.522Z,0
2017-05-30T01:16:05.954Z,0
2017-05-30T01:16:46.344Z,0
2017-05-30T01:19:04.513Z,0
2017-05-30T01:19:44.938Z,0
2017-05-30T01:20:25.385Z,0
2017-05-30T01:21:05.807Z,0
2017-05-30T01:21:46.245Z,0
2017-05-30T01:22:26.687Z,0
2017-05-30T01:23:07.107Z,0
2017-05-30T01:23:47.540Z,0
2017-05-30T01:24:27.978Z,0
2017-05-30T01:25:08.381Z,0
2017-05-30T01:25:48.805Z,0
2017-05-30T01:26:29.224Z,0
2017-05-30T01:27:09.661Z,0
2017-05-30T01:27:50.071Z,0
2017-05-30T01:28:30.512Z,0
2017-05-30T01:29:10.992Z,0
2017-05-30T01:29:51.444Z,0
2017-05-30T01:30:31.893Z,0
2017-05-30T01:31:12.307Z,0
2017-05-30T01:31:52.738Z,0
2017-05-30T01:32:33.197Z,0
2017-05-30T01:33:13.549Z,0
2017-05-30T01:33:54.001Z,0
2017-05-30T01:34:34.438Z,0
2017-05-30T01:35:14.850Z,0
2017-05-30T01:37:43.828Z,0
2017-05-30T01:38:24.298Z,0
2017-05-30T01:39:04.737Z,0
2017-05-30T01:39:45.098Z,0
2017-05-30T01:40:25.536Z,0
2017-05-30T01:41:06.000Z,0
2017-05-30T01:41:46.408Z,0
2017-05-30T01:42:26.851Z,0
2017-05-30T01:43:07.278Z,0
2017-05-30T01:43:47.667Z,0
2017-05-30T01:44:28.083Z,0
2017-05-30T01:45:08.458Z,0
2017-05-30T01:45:48.854Z,0
2017-05-30T01:46:29.259Z,0
2017-05-30T01:47:09.727Z,0
2017-05-30T01:47:50.183Z,0
2017-05-30T01:51:55.704Z,0
2017-05-30T01:52:36.115Z,0
2017-05-30T01:53:16.572Z,0
2017-05-30T01:53:56.947Z,0
2017-05-30T01:54:37.367Z,0
2017-05-30T01:55:17.829Z,0
2017-05-30T01:55:58.233Z,0
2017-05-30T01:56:38.676Z,0
2017-05-30T01:57:19.121Z,0
2017-05-30T01:57:59.524Z,0
2017-05-30T01:58:39.953Z,0
2017-05-30T01:59:20.385Z,0
2017-05-30T02:00:00.802Z,0
2017-05-30T02:00:41.208Z,0
2017-05-30T02:01:21.667Z,0
2017-05-30T02:02:02.056Z,0
2017-05-30T02:02:42.466Z,0
2017-05-30T02:03:22.910Z,0
2017-05-30T02:04:03.388Z,0
2017-05-30T02:04:43.841Z,0
2017-05-30T02:05:24.262Z,0
2017-05-30T02:06:04.641Z,0
2017-05-30T02:06:45.077Z,0
2017-05-30T02:07:25.480Z,0
2017-05-30T02:09:53.363Z,0
2017-05-30T02:10:33.806Z,0
2017-05-30T02:11:14.263Z,0
2017-05-30T02:11:54.678Z,0
2017-05-30T02:12:35.179Z,0
2017-05-30T02:13:15.508Z,0
2017-05-30T02:13:55.964Z,0
2017-05-30T02:14:36.370Z,0
2017-05-30T02:15:16.792Z,0
2017-05-30T02:15:57.222Z,0
2017-05-30T02:16:37.639Z,0
2017-05-30T02:17:18.038Z,0
2017-05-30T02:17:58.457Z,0
2017-05-30T02:18:38.862Z,0
2017-05-30T02:19:19.280Z,0
2017-05-30T02:19:59.702Z,0
2017-05-30T02:20:40.112Z,0
2017-05-30T02:21:20.571Z,0
2017-05-30T02:22:00.950Z,0
2017-05-30T02:22:41.396Z,0
2017-05-30T02:23:21.794Z,0
2017-05-30T02:24:03.261Z,0
2017-05-30T02:24:43.668Z,0
2017-05-30T02:25:24.067Z,0
2017-05-30T02:26:04.485Z,0
2017-05-30T02:26:44.909Z,0
2017-05-30T02:27:25.486Z,0
2017-05-30T02:28:05.904Z,0
2017-05-30T02:28:48.305Z,0
2017-05-30T02:29:29.544Z,0
2017-05-30T02:30:12.439Z,0
2017-05-30T02:30:52.841Z,0
2017-05-30T02:31:34.474Z,0
2017-05-30T02:32:16.856Z,0
2017-05-30T02:32:57.515Z,0
2017-05-30T02:33:39.900Z,0
2017-05-30T02:34:22.893Z,0
2017-05-30T02:35:03.297Z,0
2017-05-30T02:35:44.348Z,0
2017-05-30T02:36:34.349Z,0
2017-05-30T02:39:12.414Z,0
2017-05-30T02:40:01.867Z,0
2017-05-30T02:40:50.733Z,0
2017-05-30T02:41:39.191Z,0
2017-05-30T02:42:27.717Z,0
2017-05-30T02:43:16.544Z,0
2017-05-30T02:44:04.869Z,0
2017-05-30T02:44:53.531Z,0
2017-05-30T02:45:41.522Z,0
2017-05-30T02:46:30.366Z,0
2017-05-30T02:47:14.211Z,0
2017-05-30T02:47:56.396Z,0
2017-05-30T02:48:37.486Z,0
2017-05-30T02:49:17.973Z,0
2017-05-30T02:49:58.284Z,0
2017-05-30T02:50:41.204Z,0
2017-05-30T02:51:22.515Z,0
2017-05-30T02:52:02.981Z,0
2017-05-30T02:52:43.385Z,0
2017-05-30T02:53:23.773Z,0
2017-05-30T02:54:04.196Z,0
2017-05-30T02:54:46.239Z,0
2017-05-30T02:55:28.576Z,0
2017-05-30T02:56:11.306Z,0
2017-05-30T02:56:52.173Z,0
2017-05-30T02:57:32.650Z,0
2017-05-30T02:58:15.916Z,0
2017-05-30T02:58:56.279Z,0
2017-05-30T02:59:39.349Z,0
2017-05-30T03:00:19.720Z,0
2017-05-30T03:01:01.802Z,0
2017-05-30T03:01:42.180Z,0
2017-05-30T03:02:22.634Z,0
2017-05-30T03:03:03.010Z,0
2017-05-30T03:03:43.951Z,0
2017-05-30T03:04:24.448Z,0
2017-05-30T03:05:05.430Z,0
2017-05-30T03:05:45.865Z,0
2017-05-30T03:06:27.200Z,0
2017-05-30T03:07:07.623Z,0
2017-05-30T03:07:48.038Z,0
2017-05-30T03:08:28.453Z,0
2017-05-30T03:09:09.697Z,0
2017-05-30T03:09:50.688Z,0
2017-05-30T03:10:31.154Z,0
2017-05-30T03:11:11.517Z,0
2017-05-30T03:11:51.931Z,0
2017-05-30T03:12:32.372Z,0
2017-05-30T03:13:12.755Z,0
2017-05-30T03:13:54.716Z,0
2017-05-30T03:14:35.095Z,0
2017-05-30T03:15:15.515Z,0
2017-05-30T03:15:55.909Z,0
2017-05-30T03:16:36.326Z,0
2017-05-30T03:17:16.802Z,0
2017-05-30T03:17:57.122Z,0
2017-05-30T03:18:37.567Z,0
2017-05-30T03:19:17.971Z,0
2017-05-30T03:19:58.393Z,0
2017-05-30T03:20:38.806Z,0
2017-05-30T03:21:19.210Z,0
2017-05-30T03:21:59.613Z,0
2017-05-30T03:22:40.027Z,0
2017-05-30T03:23:20.420Z,0
2017-05-30T03:24:00.810Z,0
2017-05-30T03:24:41.273Z,0
2017-05-30T03:25:21.630Z,0
2017-05-30T03:26:02.086Z,0
2017-05-30T03:26:42.458Z,0
2017-05-30T03:27:22.905Z,0
2017-05-30T03:28:03.312Z,0
2017-05-30T03:28:43.851Z,0
2017-05-30T03:29:24.229Z,0
2017-05-30T03:30:04.683Z,0
2017-05-30T03:30:45.097Z,0
2017-05-30T03:31:25.453Z,0
2017-05-30T03:32:05.893Z,0
2017-05-30T03:32:46.312Z,0
2017-05-30T03:33:26.697Z,0
2017-05-30T03:34:07.087Z,0
2017-05-30T03:34:47.562Z,0
2017-05-30T03:35:27.911Z,0
2017-05-30T03:36:08.331Z,0
2017-05-30T03:36:48.800Z,0
2017-05-30T03:37:29.246Z,0
2017-05-30T03:38:09.643Z,0
2017-05-30T03:38:50.041Z,0
2017-05-30T03:39:30.494Z,0
2017-05-30T03:40:10.927Z,5
2017-05-30T03:40:51.319Z,5
2017-05-30T03:41:31.752Z,5
2017-05-30T03:42:12.177Z,5
2017-05-30T03:42:52.571Z,5
2017-05-30T03:43:33.034Z,5
2017-05-30T03:44:13.429Z,5
2017-05-30T03:44:53.896Z,5
2017-05-30T03:45:34.280Z,5
2017-05-30T03:46:14.727Z,5
2017-05-30T03:46:55.154Z,5
2017-05-30T03:47:35.602Z,5
2017-05-30T03:48:15.988Z,5
2017-05-30T03:48:56.394Z,5
2017-05-30T03:49:36.823Z,5
2017-05-30T03:50:17.279Z,5
2017-05-30T03:50:58.240Z,5
2017-05-30T03:51:38.657Z,5
2017-05-30T03:52:19.157Z,10
2017-05-30T03:52:59.615Z,10
2017-05-30T03:53:40.380Z,10
2017-05-30T03:54:20.728Z,10
2017-05-30T03:55:01.716Z,10
2017-05-30T03:55:42.141Z,10
2017-05-30T03:56:22.623Z,10
2017-05-30T03:57:03.068Z,10
2017-05-30T03:57:43.498Z,10
2017-05-30T03:58:23.921Z,10
2017-05-30T03:59:04.352Z,15
2017-05-30T03:59:44.736Z,15
2017-05-30T04:00:25.786Z,15
2017-05-30T04:01:06.423Z,15
2017-05-30T04:01:46.878Z,15
2017-05-30T04:02:28.806Z,20
2017-05-30T04:03:09.725Z,20
2017-05-30T04:03:50.143Z,20
2017-05-30T04:04:30.531Z,25
2017-05-30T04:05:10.976Z,25
2017-05-30T04:05:51.989Z,25
2017-05-30T04:06:32.380Z,25
2017-05-30T04:07:12.782Z,30
2017-05-30T04:07:54.125Z,30
2017-05-30T04:08:34.536Z,30
2017-05-30T04:09:14.985Z,30
2017-05-30T04:09:55.470Z,35
2017-05-30T04:10:35.979Z,35
2017-05-30T04:11:16.270Z,35
2017-05-30T04:11:56.710Z,35
2017-05-30T04:12:38.067Z,40
2017-05-30T04:13:18.484Z,40
2017-05-30T04:13:58.895Z,40
2017-05-30T04:14:40.074Z,40
2017-05-30T04:15:21.434Z,45
2017-05-30T04:16:01.831Z,45
2017-05-30T04:16:42.259Z,50
2017-05-30T04:17:22.635Z,50
2017-05-30T04:18:03.086Z,55
2017-05-30T04:18:45.087Z,55
2017-05-30T04:19:25.485Z,60
2017-05-30T04:20:05.887Z,60
2017-05-30T04:20:47.056Z,65
2017-05-30T04:21:27.454Z,65
2017-05-30T04:22:07.834Z,65
2017-05-30T04:22:48.978Z,65
2017-05-30T04:23:30.232Z,65
2017-05-30T04:24:11.316Z,70
2017-05-30T04:24:51.794Z,70
2017-05-30T04:25:32.204Z,70
2017-05-30T04:26:12.644Z,70
2017-05-30T04:26:53.017Z,70
2017-05-30T04:27:34.102Z,70
2017-05-30T04:28:16.084Z,75
2017-05-30T04:28:57.336Z,75
2017-05-30T04:29:37.700Z,75
2017-05-30T04:30:18.172Z,75
2017-05-30T04:30:58.603Z,70
2017-05-30T04:31:39.040Z,70
2017-05-30T04:32:20.758Z,70
2017-05-30T04:33:01.230Z,70
2017-05-30T04:33:42.441Z,70
2017-05-30T04:34:22.828Z,70
2017-05-30T04:35:03.880Z,70
2017-05-30T04:35:44.338Z,70
2017-05-30T04:36:24.703Z,70
2017-05-30T04:37:05.151Z,70
2017-05-30T04:37:45.579Z,75
2017-05-30T04:38:26.836Z,75
2017-05-30T04:39:07.286Z,75
2017-05-30T04:39:47.690Z,75
2017-05-30T04:40:28.151Z,75
2017-05-30T04:41:09.577Z,75
2017-05-30T04:41:49.975Z,75
2017-05-30T04:42:31.776Z,75
2017-05-30T04:43:12.191Z,80
2017-05-30T04:43:52.561Z,80
2017-05-30T04:44:32.942Z,80
2017-05-30T04:45:13.388Z,80
2017-05-30T04:45:53.860Z,80
2017-05-30T04:46:34.335Z,80
2017-05-30T04:47:15.307Z,80
2017-05-30T04:47:55.714Z,85
2017-05-30T04:48:36.140Z,85
2017-05-30T04:49:17.338Z,85
2017-05-30T04:49:57.752Z,90
2017-05-30T04:50:39.835Z,90
2017-05-30T04:51:20.241Z,90
2017-05-30T04:52:02.263Z,95
2017-05-30T04:52:42.717Z,95
2017-05-30T04:53:23.109Z,100
2017-05-30T04:54:04.266Z,105
2017-05-30T04:54:44.695Z,105
2017-05-30T04:55:25.083Z,110
2017-05-30T04:56:06.264Z,115
2017-05-30T04:56:47.692Z,115
2017-05-30T04:57:28.139Z,120
2017-05-30T04:58:08.543Z,125
2017-05-30T04:58:49.929Z,125
2017-05-30T04:59:30.992Z,125
2017-05-30T05:02:07.252Z,135
2017-05-30T05:02:50.263Z,140
2017-05-30T05:03:30.711Z,145
2017-05-30T05:04:11.084Z,155
2017-05-30T05:04:52.181Z,155
2017-05-30T05:05:33.598Z,160
2017-05-30T05:06:14.670Z,165
2017-05-30T05:06:56.007Z,170
2017-05-30T05:07:36.430Z,170
2017-05-30T05:08:17.528Z,175
2017-05-30T05:08:57.949Z,180
2017-05-30T05:09:38.451Z,180
2017-05-30T05:10:18.825Z,185
2017-05-30T05:10:59.393Z,190
2017-05-30T05:11:40.579Z,195
2017-05-30T05:12:21.078Z,195
2017-05-30T05:13:01.535Z,200
2017-05-30T05:13:42.012Z,205
2017-05-30T05:14:22.439Z,210
2017-05-30T05:15:02.829Z,215
2017-05-30T05:15:43.237Z,220
2017-05-30T05:16:23.679Z,220
2017-05-30T05:17:07.454Z,225
2017-05-30T05:17:47.869Z,230
2017-05-30T05:18:28.983Z,235
2017-05-30T05:19:09.340Z,245
2017-05-30T05:21:23.470Z,260
2017-05-30T05:22:03.845Z,260
2017-05-30T05:22:45.094Z,265
2017-05-30T05:25:09.067Z,280
2017-05-30T05:25:55.462Z,285
2017-05-30T05:26:36.414Z,290
2017-05-30T05:27:16.860Z,295
2017-05-30T05:27:57.819Z,295
2017-05-30T05:28:38.231Z,295
2017-05-30T05:29:19.405Z,295
2017-05-30T05:30:02.713Z,295
2017-05-30T05:30:45.206Z,290
2017-05-30T05:31:29.284Z,290
2017-05-30T05:32:10.547Z,295
2017-05-30T05:32:50.934Z,295
2017-05-30T05:33:31.852Z,300
2017-05-30T05:34:12.893Z,305
2017-05-30T05:36:38.685Z,325
2017-05-30T05:42:37.474Z,340
2017-05-30T05:45:06.692Z,325
2017-05-30T05:45:55.374Z,325
2017-05-30T05:46:43.536Z,320
2017-05-30T05:47:23.830Z,320
2017-05-30T05:53:23.404Z,335
2017-05-30T05:54:08.730Z,335
2017-05-30T05:55:04.659Z,345
2017-05-30T05:55:45.151Z,355
2017-05-30T05:56:26.424Z,360
2017-05-30T06:06:25.847Z,400
2017-05-30T06:07:14.009Z,395
2017-05-30T06:08:02.888Z,390
2017-05-30T06:08:44.161Z,385
2017-05-30T06:09:24.635Z,385
2017-05-30T06:10:05.799Z,385
2017-05-30T06:10:47.924Z,390
2017-05-30T06:11:29.288Z,390
2017-05-30T06:12:10.336Z,400
2017-05-30T06:12:53.498Z,415
2017-05-30T06:13:34.789Z,430
2017-05-30T06:14:15.816Z,450
2017-05-30T06:14:56.239Z,475
2017-05-30T06:15:36.650Z,495
2017-05-30T06:16:17.059Z,480
2017-05-30T06:16:59.319Z,485
2017-05-30T06:17:39.719Z,495
2017-05-30T06:18:22.035Z,505
2017-05-30T06:19:03.803Z,540
2017-05-30T06:19:44.881Z,520
2017-05-30T06:20:25.271Z,525
2017-05-30T06:21:05.713Z,525
2017-05-30T06:21:46.123Z,525
2017-05-30T06:22:26.506Z,530
2017-05-30T06:23:07.781Z,540
2017-05-30T06:23:48.797Z,540
2017-05-30T06:24:29.952Z,545
2017-05-30T06:25:11.116Z,555
2017-05-30T06:25:51.619Z,590
2017-05-30T06:26:33.588Z,565
2017-05-30T06:27:17.346Z,570
2017-05-30T06:28:02.388Z,575
2017-05-30T06:28:43.788Z,580
2017-05-30T06:29:25.153Z,585
2017-05-30T06:30:06.369Z,585
2017-05-30T06:30:47.530Z,585
2017-05-30T06:31:27.966Z,585
2017-05-30T06:32:08.407Z,600
2017-05-30T06:32:48.803Z,590
2017-05-30T06:33:29.225Z,590
2017-05-30T06:34:10.564Z,595
2017-05-30T06:34:50.938Z,595
2017-05-30T06:35:31.397Z,595
2017-05-30T06:36:12.625Z,590
2017-05-30T06:36:53.086Z,585
2017-05-30T06:37:33.595Z,585
2017-05-30T06:38:13.957Z,585
2017-05-30T06:38:54.330Z,580
2017-05-30T06:39:34.774Z,580
2017-05-30T06:40:15.200Z,575
2017-05-30T06:40:55.670Z,575
2017-05-30T06:43:44.846Z,585
2017-05-30T06:44:33.221Z,590
2017-05-30T06:45:22.222Z,620
2017-05-30T06:46:12.807Z,605
2017-05-30T06:50:28.368Z,655
2017-05-30T06:51:16.658Z,670
2017-05-30T06:52:05.045Z,690
2017-05-30T06:52:53.616Z,710
2017-05-30T06:53:41.625Z,720
2017-05-30T06:54:30.777Z,765
2017-05-30T06:55:11.999Z,775
2017-05-30T06:55:53.124Z,740
2017-05-30T06:56:33.746Z,740
2017-05-30T06:57:14.016Z,740
2017-05-30T06:57:54.532Z,735
2017-05-30T06:58:34.907Z,735
2017-05-30T06:59:15.291Z,735
2017-05-30T06:59:56.308Z,730
2017-05-30T07:00:36.734Z,730
2017-05-30T07:01:17.108Z,725
2017-05-30T07:01:57.533Z,720
2017-05-30T07:02:37.965Z,720
2017-05-30T07:03:18.398Z,785
2017-05-30T07:03:59.345Z,710
2017-05-30T07:04:39.681Z,710
2017-05-30T07:05:20.118Z,720
2017-05-30T07:06:00.509Z,725
2017-05-30T07:06:41.554Z,725
2017-05-30T07:07:22.900Z,725
2017-05-30T07:08:03.344Z,720
2017-05-30T07:08:43.768Z,700
2017-05-30T07:09:24.109Z,685
2017-05-30T07:10:06.010Z,640
2017-05-30T07:10:46.467Z,615
2017-05-30T07:11:26.868Z,590
2017-05-30T07:12:07.286Z,555
2017-05-30T07:12:47.714Z,530
2017-05-30T07:13:28.793Z,510
2017-05-30T07:14:09.212Z,485
2017-05-30T07:14:49.765Z,465
2017-05-30T07:15:30.806Z,445
2017-05-30T07:16:11.987Z,430
2017-05-30T07:16:53.306Z,415
2017-05-30T07:17:33.849Z,405
2017-05-30T07:18:14.186Z,400
2017-05-30T07:18:55.119Z,390
2017-05-30T07:19:35.545Z,380
2017-05-30T07:20:16.840Z,375
2017-05-30T07:20:57.237Z,375
2017-05-30T07:21:37.643Z,370
2017-05-30T07:22:18.078Z,365
2017-05-30T07:22:59.327Z,360
2017-05-30T07:23:40.310Z,350
2017-05-30T07:24:21.334Z,345
2017-05-30T07:25:01.711Z,345
2017-05-30T07:25:42.145Z,340
2017-05-30T07:26:23.283Z,335
2017-05-30T07:27:04.652Z,335
2017-05-30T07:27:45.038Z,335
2017-05-30T07:28:26.082Z,340
2017-05-30T07:29:06.513Z,340
2017-05-30T07:29:47.527Z,345
2017-05-30T07:30:27.952Z,350
2017-05-30T07:31:09.334Z,355
2017-05-30T07:31:50.455Z,355
2017-05-30T07:32:31.830Z,360
2017-05-30T07:33:14.121Z,360
2017-05-30T07:33:56.502Z,360
2017-05-30T07:34:36.860Z,365
2017-05-30T07:35:17.314Z,370
2017-05-30T07:35:58.317Z,375
2017-05-30T07:36:38.683Z,380
2017-05-30T07:37:19.124Z,390
2017-05-30T07:37:59.528Z,400
2017-05-30T07:38:40.047Z,410
2017-05-30T07:39:20.399Z,425
2017-05-30T07:40:00.825Z,430
2017-05-30T07:40:41.818Z,440
2017-05-30T07:41:22.196Z,450
2017-05-30T07:42:03.103Z,460
2017-05-30T07:42:43.543Z,465
2017-05-30T07:43:23.924Z,470
2017-05-30T07:44:04.365Z,475
2017-05-30T07:44:44.742Z,480
2017-05-30T07:45:25.205Z,480
2017-05-30T07:46:05.616Z,475
2017-05-30T07:46:46.026Z,480
2017-05-30T07:47:27.160Z,480
2017-05-30T07:48:07.581Z,480
2017-05-30T07:48:48.877Z,485
2017-05-30T07:49:29.183Z,490
2017-05-30T07:50:12.338Z,490
2017-05-30T07:50:52.728Z,490
2017-05-30T07:51:33.982Z,495
2017-05-30T07:56:07.756Z,475
2017-05-30T07:56:49.652Z,475
2017-05-30T07:57:31.696Z,485
2017-05-30T07:58:12.184Z,490
2017-05-30T07:58:52.576Z,500
2017-05-30T07:59:34.716Z,505
2017-05-30T08:00:15.112Z,505
2017-05-30T08:00:55.517Z,505
2017-05-30T08:01:35.963Z,510
2017-05-30T08:02:16.363Z,515
2017-05-30T08:02:56.760Z,520
2017-05-30T08:03:37.141Z,530
2017-05-30T08:04:18.130Z,535
2017-05-30T08:05:01.120Z,545
2017-05-30T08:05:42.243Z,555
2017-05-30T08:06:23.349Z,560
2017-05-30T08:07:03.768Z,570
2017-05-30T08:07:45.011Z,575
2017-05-30T08:08:25.463Z,590
2017-05-30T08:09:05.797Z,590
2017-05-30T08:09:46.195Z,600
2017-05-30T08:10:27.481Z,605
2017-05-30T08:11:11.491Z,615
2017-05-30T08:11:53.097Z,620
2017-05-30T08:12:34.232Z,625
2017-05-30T08:13:14.659Z,625
2017-05-30T08:13:55.748Z,625
2017-05-30T08:14:36.144Z,620
2017-05-30T08:15:16.544Z,615
2017-05-30T08:15:56.954Z,610
2017-05-30T08:16:41.012Z,610
2017-05-30T08:17:21.421Z,605
2017-05-30T08:18:01.825Z,605
2017-05-30T08:18:44.020Z,605
2017-05-30T08:19:26.003Z,605
2017-05-30T08:20:07.163Z,610
2017-05-30T08:20:49.286Z,615
2017-05-30T08:21:29.680Z,625
2017-05-30T08:22:12.518Z,630
2017-05-30T08:22:52.949Z,640
2017-05-30T08:23:33.384Z,655
2017-05-30T08:24:16.173Z,670
2017-05-30T08:24:57.501Z,685
2017-05-30T08:25:38.874Z,700
2017-05-30T08:26:22.486Z,705
2017-05-30T08:27:02.911Z,710
2017-05-30T08:27:44.012Z,715
2017-05-30T08:28:27.148Z,720
2017-05-30T08:29:07.540Z,740
2017-05-30T08:29:52.519Z,760
2017-05-30T08:30:34.887Z,800
2017-05-30T08:31:19.602Z,855
2017-05-30T08:32:01.672Z,935
2017-05-30T08:32:44.547Z,930
2017-05-30T08:33:25.548Z,975
2017-05-30T08:34:07.669Z,1045
2017-05-30T08:34:48.124Z,1130
2017-05-30T08:35:28.531Z,1125
2017-05-30T08:36:09.648Z,1180
2017-05-30T08:36:50.733Z,1255
2017-05-30T08:37:31.142Z,1320
2017-05-30T08:38:16.034Z,1290
2017-05-30T08:38:57.241Z,1310
2017-05-30T08:39:37.627Z,1355
2017-05-30T08:40:18.036Z,1680
2017-05-30T08:40:58.455Z,1755
2017-05-30T08:41:39.711Z,1635
2017-05-30T08:42:20.168Z,1925
2017-05-30T08:43:01.294Z,2145
2017-05-30T08:43:41.645Z,1415
2017-05-30T08:44:25.771Z,1395
2017-05-30T08:45:08.629Z,1575
2017-05-30T08:45:49.009Z,1270
2017-05-30T08:46:31.020Z,2300
2017-05-30T08:47:14.022Z,1285
2017-05-30T08:47:58.994Z,1270
2017-05-30T08:48:43.138Z,1220
2017-05-30T08:49:23.569Z,1225
2017-05-30T08:50:04.518Z,2175
2017-05-30T08:50:44.971Z,1430
2017-05-30T08:51:26.345Z,1250
2017-05-30T08:52:09.247Z,1235
2017-05-30T08:52:50.492Z,1640
2017-05-30T08:53:30.962Z,1285
2017-05-30T08:54:12.279Z,1225
2017-05-30T08:54:56.563Z,1255
2017-05-30T08:55:37.126Z,1835
2017-05-30T08:56:22.112Z,1435
2017-05-30T08:57:02.518Z,1480
2017-05-30T08:57:43.504Z,1635
2017-05-30T08:58:23.938Z,4500
2017-05-30T08:59:04.428Z,4720
2017-05-30T08:59:45.545Z,4715
2017-05-30T09:00:27.556Z,4690
2017-05-30T09:01:10.532Z,3875
2017-05-30T09:01:55.533Z,2790
2017-05-30T09:02:36.857Z,3890
2017-05-30T09:03:18.761Z,4205
2017-05-30T09:04:00.188Z,4320
2017-05-30T09:04:41.282Z,4415
2017-05-30T09:05:21.787Z,5235
2017-05-30T09:06:02.143Z,4335
2017-05-30T09:06:42.575Z,5030
2017-05-30T09:07:23.596Z,4300
2017-05-30T09:08:04.118Z,3330
2017-05-30T09:08:45.518Z,3005
2017-05-30T09:09:25.899Z,3430
2017-05-30T09:10:06.316Z,3480
2017-05-30T09:10:46.734Z,4715
2017-05-30T09:11:27.189Z,4335
2017-05-30T09:12:08.633Z,5100
2017-05-30T09:12:52.046Z,4105
2017-05-30T09:13:33.014Z,4485
2017-05-30T09:14:13.480Z,3645
2017-05-30T09:14:54.587Z,3785
2017-05-30T09:15:35.000Z,4515
2017-05-30T09:16:15.446Z,3515
2017-05-30T09:16:56.694Z,4555
2017-05-30T09:17:38.076Z,3895
2017-05-30T09:18:18.492Z,5220
2017-05-30T09:18:59.716Z,5055
2017-05-30T09:19:41.120Z,5065
2017-05-30T09:20:21.536Z,5090
2017-05-30T09:21:02.271Z,5185
2017-05-30T09:21:42.673Z,5270
2017-05-30T09:22:23.694Z,5280
2017-05-30T09:23:06.726Z,5450
2017-05-30T09:23:48.097Z,4895
2017-05-30T09:24:28.538Z,2440
2017-05-30T09:25:08.913Z,3185
2017-05-30T09:25:49.374Z,3395
2017-05-30T09:26:31.389Z,5420
2017-05-30T09:27:12.830Z,3395
2017-05-30T09:27:53.200Z,2825
2017-05-30T09:28:33.641Z,1960
2017-05-30T09:29:14.048Z,2380
2017-05-30T09:29:54.523Z,2415
2017-05-30T09:30:35.634Z,3065
2017-05-30T09:31:18.711Z,4375
2017-05-30T09:33:46.774Z,3100
2017-05-30T09:34:28.165Z,4060
2017-05-30T09:35:21.667Z,2575
2017-05-30T09:36:02.115Z,1780
2017-05-30T09:38:15.232Z,1655
2017-05-30T09:38:55.613Z,1715
2017-05-30T09:39:37.008Z,1615
2017-05-30T09:40:17.410Z,1650
2017-05-30T09:40:57.827Z,1510
2017-05-30T09:41:38.260Z,1440
2017-05-30T09:42:18.693Z,1430
2017-05-30T09:42:59.085Z,1390
2017-05-30T09:43:39.539Z,1365
2017-05-30T09:44:19.932Z,1335
2017-05-30T09:45:00.394Z,1305
2017-05-30T09:45:40.741Z,1290
2017-05-30T09:46:21.189Z,1275
2017-05-30T09:47:01.591Z,1295
2017-05-30T09:47:42.044Z,1380
2017-05-30T09:48:23.381Z,1445
2017-05-30T09:49:03.859Z,1470
2017-05-30T09:49:45.014Z,1520
2017-05-30T09:50:25.436Z,1730
2017-05-30T09:51:05.875Z,2455
2017-05-30T09:51:47.252Z,1755
2017-05-30T09:52:27.679Z,1670
2017-05-30T09:53:08.106Z,1575
2017-05-30T09:53:48.484Z,1760
2017-05-30T09:54:28.923Z,1930
2017-05-30T09:55:09.370Z,3840
2017-05-30T09:55:49.756Z,4855
2017-05-30T09:56:30.166Z,5045
2017-05-30T09:57:10.599Z,5270
2017-05-30T09:57:51.733Z,5340
2017-05-30T09:58:32.182Z,5300
2017-05-30T09:59:12.560Z,5565
2017-05-30T09:59:52.963Z,1955
2017-05-30T10:00:33.410Z,2195
2017-05-30T10:01:13.837Z,1605
2017-05-30T10:01:54.302Z,1430
2017-05-30T10:02:34.766Z,2215
2017-05-30T10:03:15.278Z,2100
2017-05-30T10:03:55.674Z,3355
2017-05-30T10:04:36.097Z,5065
2017-05-30T10:05:16.469Z,5195
2017-05-30T10:05:56.876Z,4970
2017-05-30T10:06:37.299Z,5470
2017-05-30T10:07:17.720Z,5280
2017-05-30T10:07:58.183Z,5220
2017-05-30T10:08:38.574Z,5285
2017-05-30T10:09:21.995Z,5230
2017-05-30T10:10:02.404Z,4950
2017-05-30T10:10:42.849Z,4740
2017-05-30T10:11:23.310Z,4855
2017-05-30T10:12:03.677Z,5180
2017-05-30T10:12:44.194Z,5400
2017-05-30T10:13:24.640Z,5310
2017-05-30T10:14:05.073Z,5355
2017-05-30T10:14:45.524Z,5105
2017-05-30T10:15:25.888Z,5060
2017-05-30T10:16:06.332Z,4995
2017-05-30T10:16:46.787Z,5045
2017-05-30T10:17:27.177Z,5055
2017-05-30T10:18:07.609Z,5090
2017-05-30T10:18:48.015Z,4955
2017-05-30T10:19:28.487Z,4925
2017-05-30T10:20:09.509Z,5045
2017-05-30T10:20:49.935Z,5100
2017-05-30T10:21:30.320Z,5035
2017-05-30T10:22:10.784Z,5085
2017-05-30T10:22:51.205Z,5115
2017-05-30T10:23:31.606Z,5165
2017-05-30T10:24:12.053Z,5225
2017-05-30T10:24:53.085Z,5070
2017-05-30T10:25:33.541Z,4970
2017-05-30T10:26:13.975Z,5005
2017-05-30T10:26:54.417Z,4800
2017-05-30T10:27:35.851Z,4890
2017-05-30T10:28:16.275Z,4905
2017-05-30T10:28:56.693Z,5055
2017-05-30T10:29:37.762Z,5000
2017-05-30T10:30:18.171Z,5010
2017-05-30T10:30:58.590Z,4990
2017-05-30T10:31:39.055Z,5040
2017-05-30T10:32:19.521Z,5100
2017-05-30T10:33:00.782Z,5015
2017-05-30T10:33:42.080Z,4680
2017-05-30T10:34:22.536Z,4570
2017-05-30T10:35:02.956Z,4570
2017-05-30T10:35:44.051Z,4720
2017-05-30T10:36:24.435Z,4660
2017-05-30T10:37:04.900Z,4735
2017-05-30T10:37:45.299Z,4915
2017-05-30T10:38:25.672Z,5225
2017-05-30T10:39:06.091Z,5115